WARNING - Please set your current conddition source. Defaulted to metar

Welkom op de weersite van Veghel e.o.

Vanaf 1 juni t/m 31 augustus is de meteorologische zomer.
En dat laat ons ook goed merken

Nu maar hopen dat dit aanhoud

Maar dan hebben we dit vast gehad


Webcam Veghel  Webcam Veghel


Onweer radar Meer informatie blitzortung!


Regen radar Meer informatie rain snow radar


U vindt ons ook hier:

Het Weer Aktueel

European Weather Network

Weather Underground

Benelux Weer Netwerk

AWEKAS


Het weer levert geen direct gevaar op.    Er zijn geen waarschuwingen afgegeven.

METAR rapporten vliegvelden

   
EHAM - Amsterdam
Gewijzigd: 23-06-2018 01:55
Licht bewolkt  
Licht bewolkt  
   Wind: NW 11.1 km/h
Wind: NW 11.1 km/h
Temperatuur: 9°C
Voelt als: 7°C
Dauwpunt: 7°C
Vochtigheid: 87%
Barometer: 1028 hPa
Bewolking: Few Clouds
Zicht: meer dan 10 km
Bewolking: Licht bewolkt 2300 ft
EHAM 222355Z 31006KT 9999 FEW023 09/07 Q1028 NOSIG
EHEH - Eindhoven
Gewijzigd: 23-06-2018 01:55
Licht bewolkt  
Licht bewolkt  
   Wind: Westen 7.4 km/h
Wind: Westen 7.4 km/h
Temperatuur: 9°C
Voelt als: 8°C
Dauwpunt: 7°C
Vochtigheid: 87%
Barometer: 1028 hPa
Bewolking: Few Clouds
Zicht: meer dan 10 km
Bewolking: Licht bewolkt 12000 ft
EHEH 222355Z AUTO 28004KT 240V310 9999 FEW120 09/07 Q1028 BLU
EHGR - Gilze/Rijen
Gewijzigd: 23-06-2018 01:55
Helder  
Helder  
   Wind: Westen 7.4 km/h
Wind: Westen 7.4 km/h
Temperatuur: 9°C
Voelt als: 8°C
Dauwpunt: 7°C
Vochtigheid: 87%
Barometer: 1028 hPa
Bewolking: Clear
Zicht: meer dan 10 km
Bewolking: Helder ft
EHGR 222355Z AUTO 26004KT 9999 NCD 09/07 Q1028 BLU
EHBK - Maastricht
Gewijzigd: 23-06-2018 01:55
Gedeeltelijk bewolkt  
Gedeeltelijk bewolkt  
   Wind: Westen 7.4 km/h
Wind: Westen 7.4 km/h
Temperatuur: 9°C
Voelt als: 8°C
Dauwpunt: 7°C
Vochtigheid: 87%
Barometer: 1028 hPa
Bewolking: Partly Cloudy
Zicht: meer dan 10 km
Bewolking: Gedeeltelijk bewolkt ft
EHBK 222355Z AUTO 27004KT 230V320 9999 NSC 09/07 Q1028
EHVK - Volkel
Gewijzigd: 23-06-2018 01:55
Gedeeltelijk bewolkt  
Gedeeltelijk bewolkt  
   Wind: Westen 7.4 km/h
Wind: Westen 7.4 km/h
Temperatuur: 10°C
Voelt als: 9°C
Dauwpunt: 7°C
Vochtigheid: 82%
Barometer: 1028 hPa
Bewolking: Partly Cloudy
Zicht: meer dan 10 km
Bewolking: Gedeeltelijk bewolkt 12000 ft
EHVK 222355Z AUTO 28004KT 260V320 9999 SCT120 10/07 Q1028 BLU
EHFS - Vlissingen
Gewijzigd: 23-06-2018 01:55
Helder  
Helder  
   Wind: WNW 5.6 km/h
Wind: WNW 5.6 km/h
Temperatuur: 10°C
Voelt als: 9°C
Dauwpunt: 7°C
Vochtigheid: 82%
Barometer: 1029 hPa
Bewolking: Clear
Zicht: meer dan 10 km
Bewolking: Helder ft
EHFS 222355Z AUTO 30003KT 270V340 9999 NCD 10/07 Q1029 W///H///

Script ontwikkeld door  Saratoga-weather.org Aangepast voor de template door  Weerstation Leuven

Apparatuur in gebruik:

Weerstation
Davis VP2

Weerprogramma
WeatherLink

Weercomputer
Sponsor

Webleverancier
My provider

Davis VP2

WeatherLink

Sponsor

My provider